Swan Valley, ID

5:40 AM MDT on April 21, 2015 (GMT -0600)
Trail Creek, 9500 S. | | Change Station
CLOSE
Current Station
Personal Weather Station
Location: Victor, ID
Elevation: 6316 ft
Nearby Weather Stations

Elev 6316 ft 43.59 °N, 111.09 °W | Updated 10 seconds ago

Clear
Clear
40.1 °F
Feels Like 40 °F
N
2.5
Wind Variable Wind from ESE
Gusts 4.9 mph

Today
High -- | Low -- °F
--% Chance of Precip.
Yesterday
High -- | Low -- °F
Precip. -- in
6:33 AM 8:15 PM
Waxing Crescent, 10% visible
Pressure 29.79 in
Visibility 6.0 miles
Clouds Scattered Clouds 9500 ft
Windchill 40 °F
Dew Point 29 °F
Humidity 63%
Rainfall 0.00 in
Snow Depth Not available.
UV 0 out of 12
Pollen 10.60 out of 12
Air Quality Not available.
Flu Activity Sporadic
METAR KDIJ 211056Z AUTO VRB03KT 6SM HZ SCT095 03/M03 A2993 RMK AO2 T00271033 SLP088

More Conditions Fewer Conditions

Pressure 29.79 in
Visibility 6.0 miles
Clouds Scattered Clouds 9500 ft
Windchill 40 °F
Dew Point 29 °F
Humidity 63%
Rainfall 0.00 in
Snow Depth Not available.
UV 0 out of 12
Pollen 10.60 out of 12
Air Quality Not available.
Flu Activity Sporadic
METAR KDIJ 211056Z AUTO VRB03KT 6SM HZ SCT095 03/M03 A2993 RMK AO2 T00271033 SLP088

More Conditions Fewer Conditions

10-Day Weather Forecast

Almanac

Astronomy

Apr. 21, 2015 Rise Set
Actual Time
Civil Twilight
Nautical Twilight
Astronomical Twilight
Moon
Length of Visible Light
Length of Day
Tomorrow will be .
, % of the Moon is Illuminated

Today's Extremes

State Highs State Lows

Community

WunderPhotos

Upload Photos

1,815,349 photos uploaded!

WunderBlogs® & News

Nearby

Air Quality

  Air Quality AQ Index Pollutant
Not available.

Snow Depth

Station Depth Elevation

Earthquake Activity

City Distance Mag. Time & Date
Minimum magnitude displayed is 2.5.

Coastal Water Temperatures

Place Temperature

Stations

Nearby Weather Stations

Station Location Temp. Windchill Dew Point Humidity Wind Precip. Elev Updated Type